createdAt,value
2023-02-17T00:01:33.123Z,64.37
2023-02-17T00:04:03.595Z,73.20
2023-02-17T00:06:33.123Z,62.20
2023-02-17T00:09:02.051Z,67.07
2023-02-17T00:11:31.150Z,70.93
2023-02-17T00:14:00.467Z,71.87
2023-02-17T00:16:30.288Z,65.20
2023-02-17T00:19:00.848Z,65.40
2023-02-17T00:21:32.667Z,66.13
2023-02-17T00:24:01.880Z,57.97
2023-02-17T00:26:30.975Z,74.20
2023-02-17T00:29:00.335Z,56.03
2023-02-17T00:31:29.480Z,61.23
2023-02-17T00:33:58.217Z,64.37
2023-02-17T00:36:27.774Z,68.13
2023-02-17T00:38:58.855Z,65.67
2023-02-17T00:41:30.472Z,67.27
2023-02-17T00:44:00.161Z,64.03
2023-02-17T00:46:28.921Z,59.93
2023-02-17T00:48:57.638Z,64.03
2023-02-17T00:51:27.047Z,73.90
2023-02-17T00:53:56.944Z,64.03
2023-02-17T00:56:25.457Z,66.43
2023-02-17T00:58:54.442Z,64.63
2023-02-17T01:01:23.396Z,68.27
2023-02-17T01:03:51.945Z,71.70
2023-02-17T01:06:25.430Z,71.40
2023-02-17T01:08:54.656Z,67.67
2023-02-17T01:11:27.045Z,63.37
2023-02-17T01:13:56.329Z,73.47
2023-02-17T01:16:27.495Z,63.23
2023-02-17T01:18:56.686Z,70.70
2023-02-17T01:21:26.829Z,69.90
2023-02-17T01:23:58.373Z,66.97
2023-02-17T01:26:29.929Z,70.27
2023-02-17T01:28:59.367Z,68.30
2023-02-17T01:31:28.709Z,61.97
2023-02-17T01:33:59.650Z,62.17
2023-02-17T01:36:29.043Z,67.10
2023-02-17T01:38:57.851Z,70.00
2023-02-17T01:41:29.481Z,68.50
2023-02-17T01:44:15.578Z,79.63
2023-02-17T01:46:45.786Z,70.10
2023-02-17T01:49:21.282Z,68.77
2023-02-17T01:51:57.200Z,66.67
2023-02-17T01:54:30.438Z,66.93
2023-02-17T01:57:01.903Z,75.33
2023-02-17T01:59:31.498Z,74.13
2023-02-17T02:02:05.461Z,77.03
2023-02-17T02:04:39.500Z,78.43
2023-02-17T02:07:14.722Z,79.27
2023-02-17T02:09:50.139Z,75.03
2023-02-17T02:12:26.408Z,76.27
2023-02-17T02:14:57.241Z,72.13
2023-02-17T02:17:35.008Z,72.57
2023-02-17T02:20:35.070Z,78.73
2023-02-17T02:23:27.932Z,68.90
2023-02-17T02:26:25.288Z,67.77
2023-02-17T02:29:15.922Z,62.80
2023-02-17T02:31:53.404Z,57.37
2023-02-17T02:34:27.129Z,65.27
2023-02-17T02:37:01.196Z,63.57
2023-02-17T02:39:35.742Z,66.03
2023-02-17T02:42:08.081Z,70.30
2023-02-17T02:44:37.045Z,75.50
2023-02-17T02:47:08.608Z,68.80
2023-02-17T02:49:38.674Z,80.43
2023-02-17T02:52:15.834Z,72.37
2023-02-17T02:54:54.786Z,71.70
2023-02-17T02:57:36.213Z,63.83
2023-02-17T03:00:21.890Z,62.97
2023-02-17T03:02:57.332Z,65.23
2023-02-17T03:05:39.671Z,59.83
2023-02-17T03:08:12.596Z,61.97
2023-02-17T03:10:48.784Z,58.50
2023-02-17T03:13:18.182Z,51.20
2023-02-17T03:15:48.974Z,55.10
2023-02-17T03:18:17.997Z,49.17
2023-02-17T03:20:53.294Z,53.93
2023-02-17T03:23:22.378Z,54.70
2023-02-17T03:25:51.192Z,47.07
2023-02-17T03:28:19.937Z,46.50
2023-02-17T03:30:48.484Z,47.57
2023-02-17T03:33:17.102Z,46.03
2023-02-17T03:35:45.680Z,43.30
2023-02-17T03:38:16.604Z,37.57
2023-02-17T03:40:45.432Z,39.30
2023-02-17T03:43:14.307Z,37.17
2023-02-17T03:45:43.159Z,36.90
2023-02-17T03:48:12.022Z,32.93
2023-02-17T03:50:40.783Z,33.33
2023-02-17T03:53:09.425Z,30.50
2023-02-17T03:55:39.597Z,27.60
2023-02-17T03:58:08.094Z,27.03
2023-02-17T04:00:36.931Z,25.30
2023-02-17T04:03:05.603Z,24.80
2023-02-17T04:05:34.191Z,22.73
2023-02-17T04:08:03.107Z,21.93
2023-02-17T04:10:32.768Z,23.43
2023-02-17T04:13:02.655Z,20.97
2023-02-17T04:15:31.252Z,20.57
2023-02-17T04:18:00.157Z,21.00
2023-02-17T04:20:28.794Z,22.40
2023-02-17T04:22:57.270Z,19.37
2023-02-17T04:25:25.821Z,18.53
2023-02-17T04:27:54.297Z,19.33
2023-02-17T04:30:24.335Z,19.50
2023-02-17T04:32:52.994Z,19.13
2023-02-17T04:35:21.708Z,21.07
2023-02-17T04:37:50.571Z,21.00
2023-02-17T04:40:19.466Z,20.83
2023-02-17T04:42:48.030Z,21.97
2023-02-17T04:45:16.868Z,21.80
2023-02-17T04:47:47.399Z,22.47
2023-02-17T04:50:16.037Z,20.70
2023-02-17T04:52:44.546Z,21.33
2023-02-17T04:55:13.437Z,18.17
2023-02-17T04:57:41.953Z,19.00
2023-02-17T05:00:11.698Z,18.13
2023-02-17T05:02:40.595Z,17.03
2023-02-17T05:05:10.900Z,16.43
2023-02-17T05:07:39.518Z,18.40
2023-02-17T05:10:09.574Z,17.07
2023-02-17T05:12:38.123Z,16.57
2023-02-17T05:15:08.024Z,17.80
2023-02-17T05:17:37.010Z,17.47
2023-02-17T05:20:07.214Z,17.80
2023-02-17T05:22:37.230Z,17.83
2023-02-17T05:25:06.371Z,19.17
2023-02-17T05:27:34.963Z,18.43
2023-02-17T05:30:04.812Z,18.80
2023-02-17T05:32:33.436Z,18.93
2023-02-17T05:35:01.994Z,18.23
2023-02-17T05:37:30.522Z,17.50
2023-02-17T05:40:00.680Z,15.97
2023-02-17T05:42:29.292Z,14.90
2023-02-17T05:44:57.930Z,14.90
2023-02-17T05:47:27.679Z,15.40
2023-02-17T05:49:56.894Z,17.47
2023-02-17T05:52:25.526Z,18.47
2023-02-17T05:54:54.391Z,18.30
2023-02-17T05:57:24.283Z,18.47
2023-02-17T05:59:52.834Z,20.63
2023-02-17T06:02:21.881Z,22.30
2023-02-17T06:04:50.928Z,22.40
2023-02-17T06:07:19.625Z,21.87
2023-02-17T06:09:48.206Z,21.07
2023-02-17T06:12:16.737Z,22.53
2023-02-17T06:14:47.051Z,23.63
2023-02-17T06:17:15.571Z,27.03
2023-02-17T06:19:44.107Z,29.07
2023-02-17T06:22:17.774Z,27.33
2023-02-17T06:24:47.464Z,28.10
2023-02-17T06:27:16.077Z,28.33
2023-02-17T06:29:44.723Z,23.93
2023-02-17T06:32:14.687Z,24.03
2023-02-17T06:34:43.743Z,21.37
2023-02-17T06:37:12.346Z,21.07
2023-02-17T06:39:40.898Z,15.97
2023-02-17T06:42:09.508Z,16.53
2023-02-17T06:44:38.020Z,15.73
2023-02-17T06:47:06.654Z,15.93
2023-02-17T06:49:38.244Z,17.23
2023-02-17T06:52:09.042Z,19.47
2023-02-17T06:54:37.614Z,19.87
2023-02-17T06:57:06.188Z,23.43
2023-02-17T06:59:34.760Z,23.50
2023-02-17T07:02:04.919Z,24.20
2023-02-17T07:04:35.860Z,25.20
2023-02-17T07:07:04.549Z,24.03
2023-02-17T07:09:33.760Z,20.67
2023-02-17T07:12:03.156Z,19.27
2023-02-17T07:14:33.683Z,19.53
2023-02-17T07:17:03.283Z,18.00
2023-02-17T07:19:32.456Z,17.97
2023-02-17T07:22:02.848Z,21.20
2023-02-17T07:24:31.543Z,18.20
2023-02-17T07:27:01.093Z,18.90
2023-02-17T07:29:30.165Z,20.07
2023-02-17T07:31:59.033Z,19.17
2023-02-17T07:34:28.509Z,20.07
2023-02-17T07:36:57.126Z,22.50
2023-02-17T07:39:27.393Z,20.17
2023-02-17T07:42:01.212Z,20.73
2023-02-17T07:44:31.820Z,21.40
2023-02-17T07:47:00.349Z,21.40
2023-02-17T07:49:28.968Z,19.23
2023-02-17T07:51:58.481Z,17.57
2023-02-17T07:54:28.583Z,16.87
2023-02-17T07:56:57.083Z,17.77
2023-02-17T07:59:25.620Z,16.37
2023-02-17T08:01:54.584Z,18.73
2023-02-17T08:04:23.130Z,16.47
2023-02-17T08:06:51.794Z,18.30
2023-02-17T08:09:38.220Z,19.13
2023-02-17T08:12:27.999Z,18.70
2023-02-17T08:14:59.650Z,20.40
2023-02-17T08:17:28.572Z,21.00
2023-02-17T08:19:57.317Z,23.23
2023-02-17T08:22:26.146Z,20.27
2023-02-17T08:24:54.762Z,21.70
2023-02-17T08:27:25.014Z,20.73
2023-02-17T08:29:55.601Z,21.40
2023-02-17T08:32:24.411Z,20.07
2023-02-17T08:34:56.347Z,20.63
2023-02-17T08:37:25.190Z,19.90
2023-02-17T08:39:53.884Z,20.57
2023-02-17T08:42:22.500Z,20.30
2023-02-17T08:44:52.506Z,20.87
2023-02-17T08:47:21.380Z,20.07
2023-02-17T08:49:50.157Z,20.27
2023-02-17T08:52:18.815Z,20.17
2023-02-17T08:54:47.571Z,19.43
2023-02-17T08:57:16.534Z,19.07
2023-02-17T08:59:48.132Z,17.47
2023-02-17T09:02:18.569Z,16.63
2023-02-17T09:04:47.212Z,14.93
2023-02-17T09:07:16.710Z,13.77
2023-02-17T09:09:46.413Z,13.70
2023-02-17T09:12:15.355Z,12.53
2023-02-17T09:14:44.116Z,11.90
2023-02-17T09:17:12.969Z,11.87
2023-02-17T09:19:43.021Z,12.20
2023-02-17T09:22:26.305Z,12.53
2023-02-17T09:24:59.665Z,11.53
2023-02-17T09:27:28.944Z,11.23
2023-02-17T09:29:58.383Z,12.37
2023-02-17T09:32:27.250Z,12.43
2023-02-17T09:34:58.999Z,11.00
2023-02-17T09:37:28.467Z,9.77
2023-02-17T09:39:57.092Z,9.90
2023-02-17T09:42:27.443Z,9.57
2023-02-17T09:45:01.439Z,8.90
2023-02-17T09:47:36.409Z,10.17
2023-02-17T09:50:11.323Z,8.07
2023-02-17T09:52:49.232Z,7.80
2023-02-17T09:55:23.851Z,8.27
2023-02-17T09:57:58.473Z,7.70
2023-02-17T10:00:31.505Z,7.90
2023-02-17T10:03:07.006Z,7.97
2023-02-17T10:05:41.351Z,7.17
2023-02-17T10:08:16.516Z,7.53
2023-02-17T10:10:52.568Z,7.50
2023-02-17T10:13:23.815Z,7.70
2023-02-17T10:15:54.957Z,8.30
2023-02-17T10:18:32.522Z,9.30
2023-02-17T10:21:08.553Z,8.87
2023-02-17T10:23:37.352Z,9.43
2023-02-17T10:26:19.729Z,7.73
2023-02-17T10:28:53.741Z,8.67
2023-02-17T10:31:41.032Z,8.10
2023-02-17T10:34:18.619Z,7.80
2023-02-17T10:36:59.041Z,7.63
2023-02-17T10:39:43.825Z,7.87
2023-02-17T10:42:22.180Z,8.03
2023-02-17T10:44:52.574Z,7.53
2023-02-17T10:47:22.699Z,6.60
2023-02-17T10:49:54.664Z,7.47
2023-02-17T10:52:38.910Z,7.90
2023-02-17T10:55:22.696Z,8.17
2023-02-17T10:57:55.869Z,6.97
2023-02-17T11:00:26.956Z,10.60
2023-02-17T11:02:56.056Z,6.77
2023-02-17T11:05:27.535Z,7.03
2023-02-17T11:08:01.108Z,7.33
2023-02-17T11:10:32.828Z,7.00
2023-02-17T11:13:03.762Z,6.63
2023-02-17T11:15:36.614Z,6.83
2023-02-17T11:18:13.063Z,5.80
2023-02-17T11:20:41.945Z,7.57
2023-02-17T11:23:25.920Z,5.50
2023-02-17T11:26:00.922Z,6.10
2023-02-17T11:28:30.476Z,5.93
2023-02-17T11:31:06.028Z,7.37
2023-02-17T11:33:37.329Z,6.37
2023-02-17T11:36:08.223Z,5.70
2023-02-17T11:38:46.742Z,5.67
2023-02-17T11:41:15.740Z,5.13
2023-02-17T11:43:55.056Z,5.57
2023-02-17T11:46:30.210Z,5.13
2023-02-17T11:49:22.156Z,7.53
2023-02-17T11:52:00.636Z,4.93
2023-02-17T11:54:37.811Z,6.50
2023-02-17T11:57:21.519Z,6.03
2023-02-17T12:00:05.745Z,3.97
2023-02-17T12:02:52.995Z,4.87
2023-02-17T12:05:28.246Z,6.00
2023-02-17T12:08:10.041Z,7.07
2023-02-17T12:10:57.029Z,4.10
2023-02-17T12:13:36.740Z,5.70
2023-02-17T12:16:29.285Z,3.77
2023-02-17T12:19:06.315Z,4.73
2023-02-17T12:21:54.534Z,3.97
2023-02-17T12:24:50.895Z,4.17
2023-02-17T12:27:32.891Z,4.37
2023-02-17T12:30:16.316Z,3.80
2023-02-17T12:33:04.012Z,4.23
2023-02-17T12:35:42.272Z,4.30
2023-02-17T12:38:17.205Z,4.33
2023-02-17T12:40:51.947Z,5.03
2023-02-17T12:43:29.808Z,6.10
2023-02-17T12:46:01.862Z,5.13
2023-02-17T12:48:36.709Z,4.47
2023-02-17T12:51:10.754Z,4.80
2023-02-17T12:53:48.881Z,4.77
2023-02-17T12:57:00.800Z,7.57
2023-02-17T12:59:36.113Z,4.50
2023-02-17T13:02:08.409Z,4.37
2023-02-17T13:04:37.837Z,5.00
2023-02-17T13:07:21.273Z,4.53
2023-02-17T13:09:54.009Z,5.83
2023-02-17T13:12:39.357Z,4.27
2023-02-17T13:15:29.415Z,5.30
2023-02-17T13:18:03.694Z,4.80
2023-02-17T13:20:58.308Z,3.93
2023-02-17T13:23:59.726Z,5.13
2023-02-17T13:26:31.227Z,4.73
2023-02-17T13:29:21.374Z,5.03
2023-02-17T13:31:54.763Z,4.40
2023-02-17T13:34:29.708Z,4.03
2023-02-17T13:37:02.956Z,5.47
2023-02-17T13:39:38.145Z,6.57
2023-02-17T13:42:38.523Z,4.40
2023-02-17T13:45:19.160Z,6.40
2023-02-17T13:47:51.290Z,6.07
2023-02-17T13:50:34.264Z,4.37
2023-02-17T13:53:04.483Z,4.70
2023-02-17T13:55:33.582Z,4.50
2023-02-17T13:58:03.053Z,4.67
2023-02-17T14:00:32.537Z,5.40
2023-02-17T14:03:15.833Z,5.53
2023-02-17T14:05:46.840Z,7.77
2023-02-17T14:08:21.475Z,7.60
2023-02-17T14:10:50.582Z,7.97
2023-02-17T14:13:23.821Z,9.00
2023-02-17T14:15:55.429Z,11.60
2023-02-17T14:18:33.319Z,11.43
2023-02-17T14:21:04.313Z,12.90
2023-02-17T14:23:45.192Z,12.70
2023-02-17T14:26:17.596Z,14.03
2023-02-17T14:28:55.491Z,14.43
2023-02-17T14:31:25.276Z,14.43
2023-02-17T14:33:57.866Z,17.70
2023-02-17T14:36:35.269Z,16.87
2023-02-17T14:39:07.989Z,18.03
2023-02-17T14:41:36.823Z,18.17
2023-02-17T14:44:06.205Z,18.73
2023-02-17T14:46:35.189Z,19.93
2023-02-17T14:49:05.652Z,21.13
2023-02-17T14:51:37.471Z,20.73
2023-02-17T14:54:13.304Z,20.97
2023-02-17T14:56:46.635Z,19.83
2023-02-17T14:59:15.929Z,21.87
2023-02-17T15:01:45.732Z,22.20
2023-02-17T15:04:16.778Z,21.70
2023-02-17T15:06:50.964Z,23.67
2023-02-17T15:09:22.501Z,21.43
2023-02-17T15:11:52.012Z,22.43
2023-02-17T15:14:22.331Z,21.87
2023-02-17T15:16:51.600Z,22.43
2023-02-17T15:19:22.384Z,24.07
2023-02-17T15:21:52.704Z,22.70
2023-02-17T15:24:27.261Z,23.07
2023-02-17T15:26:59.424Z,22.53
2023-02-17T15:29:31.288Z,22.70
2023-02-17T15:32:03.702Z,23.13
2023-02-17T15:34:35.383Z,21.57
2023-02-17T15:37:04.771Z,22.23
2023-02-17T15:39:34.062Z,22.27
2023-02-17T15:42:08.384Z,20.43
2023-02-17T15:44:45.066Z,19.90
2023-02-17T15:47:17.671Z,18.70
2023-02-17T15:49:48.378Z,18.77
2023-02-17T15:52:19.133Z,18.43
2023-02-17T15:54:48.507Z,17.47
2023-02-17T15:57:26.490Z,18.10
2023-02-17T15:59:56.430Z,17.00
2023-02-17T16:02:27.176Z,17.27
2023-02-17T16:04:57.580Z,16.50
2023-02-17T16:07:26.678Z,15.73
2023-02-17T16:09:55.821Z,15.70
2023-02-17T16:12:28.017Z,14.87
2023-02-17T16:14:59.921Z,15.00
2023-02-17T16:17:32.579Z,15.13
2023-02-17T16:20:03.309Z,15.50
2023-02-17T16:22:32.197Z,16.33
2023-02-17T16:25:02.282Z,15.63
2023-02-17T16:27:31.292Z,14.27
2023-02-17T16:30:00.398Z,13.70
2023-02-17T16:32:30.213Z,14.60
2023-02-17T16:34:59.484Z,12.33
2023-02-17T16:37:34.362Z,12.80
2023-02-17T16:40:06.723Z,13.20
2023-02-17T16:42:36.205Z,11.50
2023-02-17T16:45:05.968Z,11.73
2023-02-17T16:47:34.885Z,11.00
2023-02-17T16:50:10.470Z,11.63
2023-02-17T16:52:42.958Z,11.50
2023-02-17T16:55:18.302Z,13.63
2023-02-17T16:57:48.490Z,11.63
2023-02-17T17:00:20.732Z,11.97
2023-02-17T17:02:50.986Z,12.70
2023-02-17T17:05:26.377Z,11.07
2023-02-17T17:07:57.794Z,12.20
2023-02-17T17:10:29.506Z,12.67
2023-02-17T17:12:59.400Z,14.43
2023-02-17T17:15:32.175Z,16.00
2023-02-17T17:18:03.903Z,14.60
2023-02-17T17:20:35.865Z,14.90
2023-02-17T17:23:15.367Z,28.10
2023-02-17T17:25:47.757Z,16.07
2023-02-17T17:28:19.174Z,18.97
2023-02-17T17:30:50.411Z,18.90
2023-02-17T17:33:19.399Z,12.37
2023-02-17T17:35:48.657Z,14.40
2023-02-17T17:38:19.817Z,14.77
2023-02-17T17:40:52.101Z,14.73
2023-02-17T17:43:23.714Z,12.70
2023-02-17T17:45:53.838Z,10.83
2023-02-17T17:48:22.964Z,11.77
2023-02-17T17:50:51.802Z,11.10
2023-02-17T17:53:22.538Z,12.30
2023-02-17T17:55:53.220Z,11.80
2023-02-17T17:58:22.476Z,11.73
2023-02-17T18:00:53.383Z,11.93
2023-02-17T18:03:22.606Z,11.37
2023-02-17T18:05:52.098Z,11.33
2023-02-17T18:08:23.263Z,10.80
2023-02-17T18:10:52.752Z,12.23
2023-02-17T18:13:23.796Z,10.37
2023-02-17T18:15:56.045Z,11.63
2023-02-17T18:18:26.149Z,10.40
2023-02-17T18:20:58.187Z,10.83
2023-02-17T18:23:35.468Z,11.50
2023-02-17T18:26:09.977Z,10.73
2023-02-17T18:28:40.908Z,11.70
2023-02-17T18:31:11.632Z,12.40
2023-02-17T18:33:41.221Z,12.13
2023-02-17T18:36:11.494Z,11.40
2023-02-17T18:38:42.453Z,13.27
2023-02-17T18:41:19.474Z,12.97
2023-02-17T18:43:49.280Z,12.60
2023-02-17T18:46:20.048Z,12.40
2023-02-17T18:48:49.391Z,13.23
2023-02-17T18:51:23.336Z,12.47
2023-02-17T18:53:54.020Z,12.60
2023-02-17T18:56:25.167Z,13.10
2023-02-17T18:58:56.032Z,13.33
2023-02-17T19:01:27.404Z,13.70
2023-02-17T19:03:57.349Z,12.47
2023-02-17T19:06:32.352Z,13.40
2023-02-17T19:09:06.516Z,15.23
2023-02-17T19:11:36.272Z,15.90
2023-02-17T19:14:05.889Z,22.07
2023-02-17T19:16:35.172Z,16.00
2023-02-17T19:19:05.023Z,17.47
2023-02-17T19:21:36.305Z,16.33
2023-02-17T19:24:09.760Z,18.47
2023-02-17T19:26:39.278Z,17.50
2023-02-17T19:29:09.194Z,18.50
2023-02-17T19:31:38.218Z,20.40
2023-02-17T19:34:07.183Z,18.10
2023-02-17T19:36:36.338Z,17.90
2023-02-17T19:39:09.565Z,19.80
2023-02-17T19:41:38.752Z,19.40
2023-02-17T19:44:08.404Z,19.57
2023-02-17T19:46:40.850Z,22.53
2023-02-17T19:49:10.143Z,23.57
2023-02-17T19:51:39.283Z,60.83
2023-02-17T19:54:12.555Z,23.33
2023-02-17T19:56:41.715Z,22.30
2023-02-17T19:59:10.893Z,20.10
2023-02-17T20:01:43.151Z,24.40
2023-02-17T20:04:12.740Z,27.77
2023-02-17T20:06:43.524Z,28.60
2023-02-17T20:09:17.682Z,22.60
2023-02-17T20:11:47.587Z,59.83
2023-02-17T20:14:17.696Z,23.43
2023-02-17T20:16:48.666Z,24.27
2023-02-17T20:19:21.367Z,31.60
2023-02-17T20:21:50.511Z,22.27
2023-02-17T20:24:21.709Z,26.53
2023-02-17T20:26:53.788Z,26.30
2023-02-17T20:29:23.241Z,25.83
2023-02-17T20:31:52.260Z,28.53
2023-02-17T20:34:30.590Z,25.80
2023-02-17T20:37:00.244Z,22.97
2023-02-17T20:39:31.112Z,30.03
2023-02-17T20:42:01.927Z,24.37
2023-02-17T20:44:35.740Z,22.10
2023-02-17T20:47:07.820Z,27.90
2023-02-17T20:49:40.511Z,21.33
2023-02-17T20:52:09.449Z,19.03
2023-02-17T20:54:40.814Z,18.57
2023-02-17T20:57:19.718Z,22.03
2023-02-17T20:59:52.003Z,24.80
2023-02-17T21:02:21.792Z,21.43
2023-02-17T21:04:51.293Z,19.53
2023-02-17T21:07:20.571Z,21.20
2023-02-17T21:09:56.206Z,20.27
2023-02-17T21:12:25.963Z,18.87
2023-02-17T21:14:56.874Z,19.20
2023-02-17T21:17:25.700Z,27.00
2023-02-17T21:19:54.608Z,24.13
2023-02-17T21:22:26.276Z,21.50
2023-02-17T21:24:57.418Z,25.37
2023-02-17T21:27:27.238Z,27.27
2023-02-17T21:29:56.154Z,25.57
2023-02-17T21:32:25.175Z,27.43
2023-02-17T21:34:54.083Z,27.43
2023-02-17T21:37:23.240Z,27.27
2023-02-17T21:39:52.471Z,36.17
2023-02-17T21:42:36.445Z,37.53
2023-02-17T21:45:06.063Z,34.97
2023-02-17T21:47:35.228Z,45.43
2023-02-17T21:50:04.411Z,38.53
2023-02-17T21:52:33.227Z,42.70
2023-02-17T21:55:02.003Z,42.73
2023-02-17T21:57:32.748Z,44.47
2023-02-17T22:00:01.411Z,46.77
2023-02-17T22:02:30.769Z,54.10
2023-02-17T22:04:59.842Z,57.40
2023-02-17T22:07:28.834Z,55.53
2023-02-17T22:09:57.584Z,55.10
2023-02-17T22:12:26.746Z,52.93
2023-02-17T22:14:57.010Z,122.93
2023-02-17T22:17:26.126Z,74.80
2023-02-17T22:19:57.029Z,51.40
2023-02-17T22:22:26.760Z,57.70
2023-02-17T22:24:58.498Z,59.90
2023-02-17T22:27:27.753Z,55.57
2023-02-17T22:29:58.733Z,45.47
2023-02-17T22:32:27.781Z,49.73
2023-02-17T22:34:56.642Z,43.77
2023-02-17T22:37:26.452Z,47.27
2023-02-17T22:39:57.106Z,45.60
2023-02-17T22:42:26.064Z,43.67
2023-02-17T22:44:54.802Z,40.47
2023-02-17T22:47:25.632Z,50.73
2023-02-17T22:49:54.526Z,46.97
2023-02-17T22:52:23.139Z,50.93
2023-02-17T22:54:52.581Z,56.17
2023-02-17T22:57:21.349Z,48.20
2023-02-17T22:59:50.014Z,54.27
2023-02-17T23:02:19.051Z,52.83
2023-02-17T23:04:49.291Z,46.47
2023-02-17T23:07:18.101Z,56.83
2023-02-17T23:09:46.821Z,50.57
2023-02-17T23:12:16.326Z,59.97
2023-02-17T23:14:46.452Z,57.53
2023-02-17T23:17:15.644Z,62.50
2023-02-17T23:19:44.416Z,64.73
2023-02-17T23:22:16.953Z,63.03
2023-02-17T23:24:47.212Z,62.87
2023-02-17T23:27:16.627Z,64.37
2023-02-17T23:29:45.638Z,65.33
2023-02-17T23:32:14.352Z,70.40
2023-02-17T23:34:43.868Z,68.60
2023-02-17T23:37:13.859Z,65.77
2023-02-17T23:39:43.470Z,56.83
2023-02-17T23:42:12.046Z,68.33
2023-02-17T23:44:40.620Z,62.20
2023-02-17T23:47:09.262Z,79.10
2023-02-17T23:49:38.214Z,71.00
2023-02-17T23:52:07.041Z,69.07
2023-02-17T23:54:37.180Z,80.27
2023-02-17T23:57:06.830Z,76.43
2023-02-17T23:59:35.949Z,81.53
